Time;durP1;ratioP1;P1;durP2;ratioP2;P2;SDS_P1;SDS_P2;PMS_P1;PMS_P2;Temp;Humidity;BMP_temperature;BMP_pressure;BME280_temperature;BME280_humidity;BME280_pressure;Samples;Min_cycle;Max_cycle;Signal;HPM_P1;HPM_P2
2021/05/02 00:00:10;;;;;;;18.85;8.30;;;;;;;12.05;100.00;101003.34;1550382;92;21196;-82
2021/05/02 00:02:36;;;;;;;18.65;7.97;;;;;;;12.06;100.00;101011.75;1478298;97;21605;-82
2021/05/02 00:05:05;;;;;;;21.35;9.25;;;;;;;12.10;100.00;101006.09;1478498;97;21289;-82
2021/05/02 00:07:31;;;;;;;20.10;8.50;;;;;;;12.16;100.00;101006.95;1478279;97;21854;-82
2021/05/02 00:09:59;;;;;;;23.77;9.95;;;;;;;12.11;100.00;101002.84;1478184;97;21236;-82
2021/05/02 00:12:26;;;;;;;25.82;9.60;;;;;;;12.09;100.00;101004.98;1478446;97;21400;-82
2021/05/02 00:14:54;;;;;;;22.17;9.30;;;;;;;12.02;100.00;101005.22;1478276;97;21251;-82
2021/05/02 00:17:22;;;;;;;21.35;9.15;;;;;;;12.05;100.00;101010.10;1478416;97;21242;-82
2021/05/02 00:19:49;;;;;;;25.00;9.13;;;;;;;12.04;100.00;101004.43;1488387;94;21415;-82
2021/05/02 00:22:20;;;;;;;19.37;8.10;;;;;;;12.03;100.00;101006.33;1497531;94;21189;-82
2021/05/02 00:24:48;;;;;;;18.12;8.18;;;;;;;12.07;100.00;100997.70;1497536;94;21536;-82
2021/05/02 00:27:14;;;;;;;19.10;8.25;;;;;;;12.05;100.00;100992.54;1497539;94;21202;-82
2021/05/02 00:29:42;;;;;;;18.70;7.80;;;;;;;12.07;100.00;100991.75;1497612;95;21750;-82
2021/05/02 00:32:09;;;;;;;16.97;8.53;;;;;;;12.08;100.00;100983.91;1497674;94;21407;-82
2021/05/02 00:34:37;;;;;;;19.87;8.58;;;;;;;12.12;100.00;100983.69;1540789;92;21722;-82
2021/05/02 00:37:05;;;;;;;23.18;8.13;;;;;;;12.13;100.00;100985.31;1547877;92;21840;-82
2021/05/02 00:39:31;;;;;;;19.52;8.28;;;;;;;12.16;100.00;100975.33;1548370;92;21320;-82
2021/05/02 00:42:04;;;;;;;21.75;8.73;;;;;;;12.15;100.00;100972.36;1546502;91;21279;-82
2021/05/02 00:44:46;;;;;;;21.73;9.28;;;;;;;12.10;100.00;100968.81;1525004;94;21280;-82
2021/05/02 00:47:21;;;;;;;26.20;9.73;;;;;;;12.07;100.00;100978.79;1541035;93;21221;-82
2021/05/02 00:50:00;;;;;;;25.92;9.85;;;;;;;12.08;100.00;100974.46;1519232;92;21206;-82
2021/05/02 00:52:40;;;;;;;21.12;9.18;;;;;;;12.12;100.00;100964.78;1572033;91;21313;-82
2021/05/02 00:55:10;;;;;;;22.32;9.05;;;;;;;12.19;100.00;100968.05;1567884;91;21677;-82
2021/05/02 00:58:03;;;;;;;23.85;9.58;;;;;;;12.18;100.00;100967.78;1612207;89;21330;-82
2021/05/02 01:00:32;;;;;;;22.22;9.53;;;;;;;12.23;100.00;100968.34;1572905;91;21252;-82
2021/05/02 01:03:02;;;;;;;22.25;8.95;;;;;;;12.24;100.00;100964.58;1599130;88;21235;-82
2021/05/02 01:05:30;;;;;;;20.95;8.68;;;;;;;12.22;100.00;100968.07;1599235;88;21323;-82
2021/05/02 01:07:59;;;;;;;24.40;9.45;;;;;;;12.22;100.00;100962.66;1599136;88;21195;-82
2021/05/02 01:10:30;;;;;;;23.90;9.00;;;;;;;12.27;100.00;100966.76;1595719;88;21280;-82
2021/05/02 01:12:59;;;;;;;22.70;8.85;;;;;;;12.28;100.00;100960.27;1599093;88;21191;-82
2021/05/02 01:15:31;;;;;;;23.27;9.33;;;;;;;12.26;100.00;100954.30;1599185;88;21656;-82
2021/05/02 01:18:05;;;;;;;24.18;9.08;;;;;;;12.21;100.00;100955.10;1578611;89;21309;-82
2021/05/02 01:20:41;;;;;;;19.98;8.90;;;;;;;12.15;100.00;100950.75;1608897;88;21671;-82
2021/05/02 01:23:29;;;;;;;28.83;9.75;;;;;;;12.15;100.00;100952.64;1625223;88;21253;-82
2021/05/02 01:25:58;;;;;;;26.12;10.05;;;;;;;12.13;100.00;100946.13;1625160;88;21218;-82
2021/05/02 01:28:26;;;;;;;20.55;8.80;;;;;;;12.02;100.00;100945.79;1625129;88;21126;-82
2021/05/02 01:30:54;;;;;;;22.10;9.78;;;;;;;12.00;100.00;100937.12;1624963;88;21270;-82
2021/05/02 01:33:21;;;;;;;31.80;9.70;;;;;;;11.93;100.00;100935.20;1623119;88;21665;-82
2021/05/02 01:35:47;;;;;;;30.27;11.18;;;;;;;11.86;100.00;100938.13;1622384;87;21233;-82
2021/05/02 01:38:14;;;;;;;33.98;12.25;;;;;;;11.86;100.00;100941.38;1622043;87;21270;-82
2021/05/02 01:40:41;;;;;;;33.18;12.35;;;;;;;11.81;100.00;100938.87;1622189;87;21295;-82
2021/05/02 01:43:07;;;;;;;28.67;11.57;;;;;;;11.77;100.00;100932.37;1622139;88;21225;-82
2021/05/02 01:45:33;;;;;;;28.10;10.75;;;;;;;11.70;100.00;100929.60;1622256;88;21170;-82
2021/05/02 01:48:04;;;;;;;23.67;10.58;;;;;;;11.53;100.00;100929.23;1622150;88;21636;-82
2021/05/02 01:50:35;;;;;;;23.50;9.90;;;;;;;11.53;100.00;100925.17;1621831;87;21284;-82
2021/05/02 01:53:02;;;;;;;28.67;10.82;;;;;;;11.55;100.00;100924.91;1571417;89;21191;-82
2021/05/02 01:55:29;;;;;;;25.35;9.60;;;;;;;11.55;100.00;100931.66;1571557;90;21134;-82
2021/05/02 01:57:55;;;;;;;25.30;10.40;;;;;;;11.54;100.00;100930.84;1571576;90;21250;-82
2021/05/02 02:00:27;;;;;;;25.60;10.23;;;;;;;11.54;100.00;100927.34;1571735;91;21209;-82
2021/05/02 02:02:54;;;;;;;22.30;10.18;;;;;;;11.49;100.00;100930.80;1571515;90;21214;-82
2021/05/02 02:05:24;;;;;;;22.42;10.55;;;;;;;11.44;100.00;100933.47;1571559;90;21279;-82
2021/05/02 02:07:50;;;;;;;26.00;10.75;;;;;;;11.42;100.00;100931.56;1571422;90;21302;-82
2021/05/02 02:10:20;;;;;;;24.55;10.65;;;;;;;11.37;100.00;100943.65;1571431;90;21161;-82
2021/05/02 02:12:47;;;;;;;31.07;11.05;;;;;;;11.36;100.00;100936.63;1571461;91;21259;-82
2021/05/02 02:15:15;;;;;;;29.65;10.40;;;;;;;11.37;100.00;100930.97;1570745;90;21173;-82
2021/05/02 02:17:42;;;;;;;22.77;9.70;;;;;;;11.36;100.00;100942.03;1570365;91;21189;-82
2021/05/02 02:20:10;;;;;;;23.67;10.20;;;;;;;11.29;100.00;100938.17;1570493;90;21225;-82
2021/05/02 02:22:42;;;;;;;27.22;11.05;;;;;;;11.26;100.00;100941.92;1570504;91;21276;-82
2021/05/02 02:25:11;;;;;;;27.22;11.65;;;;;;;11.24;100.00;100930.59;1570495;91;22036;-82
2021/05/02 02:27:39;;;;;;;26.62;11.28;;;;;;;11.21;100.00;100930.56;1570308;91;21755;-82
2021/05/02 02:30:11;;;;;;;23.60;10.60;;;;;;;11.20;100.00;100919.48;1570358;91;21755;-82
2021/05/02 02:32:46;;;;;;;25.65;10.78;;;;;;;11.20;100.00;100919.48;1568316;90;21251;-82
2021/05/02 02:35:18;;;;;;;25.57;11.70;;;;;;;11.24;100.00;100921.16;1562589;91;21508;-82
2021/05/02 02:37:49;;;;;;;21.75;10.68;;;;;;;11.21;100.00;100916.27;1562442;91;21210;-82
2021/05/02 02:40:16;;;;;;;28.47;11.08;;;;;;;11.25;100.00;100919.53;1562611;91;21303;-82
2021/05/02 02:42:46;;;;;;;39.48;13.80;;;;;;;11.17;100.00;100924.03;1562568;91;21181;-82
2021/05/02 02:45:15;;;;;;;30.55;12.73;;;;;;;11.16;100.00;100923.77;1542495;91;21654;-82
2021/05/02 02:47:54;;;;;;;33.38;13.08;;;;;;;11.19;100.00;100919.75;1562548;91;21219;-82
2021/05/02 02:50:21;;;;;;;33.53;14.15;;;;;;;11.16;100.00;100915.67;1632787;86;21263;-82
2021/05/02 02:52:52;;;;;;;34.70;13.55;;;;;;;11.27;100.00;100915.24;1667741;85;21215;-82
2021/05/02 02:55:21;;;;;;;36.75;13.08;;;;;;;11.32;100.00;100913.91;1668139;85;21271;-82
2021/05/02 02:57:58;;;;;;;37.85;13.40;;;;;;;11.47;100.00;100924.02;1571910;91;21215;-82
2021/05/02 03:00:28;;;;;;;29.70;13.18;;;;;;;11.49;100.00;100925.40;1598221;89;21088;-82
2021/05/02 03:03:10;;;;;;;29.35;13.05;;;;;;;11.49;100.00;100925.40;1598217;89;21259;-82
2021/05/02 03:05:38;;;;;;;34.27;13.03;;;;;;;11.55;100.00;100926.25;1559816;90;21297;-82
2021/05/02 03:08:08;;;;;;;32.05;12.40;;;;;;;11.58;100.00;100924.39;1580250;90;21691;-82
2021/05/02 03:10:36;;;;;;;33.80;11.78;;;;;;;11.65;100.00;100918.25;1577041;90;21203;-82
2021/05/02 03:13:04;;;;;;;27.10;11.50;;;;;;;11.71;100.00;100922.61;1580405;90;21214;-82
2021/05/02 03:15:30;;;;;;;31.55;12.28;;;;;;;11.83;100.00;100921.87;1580384;90;21291;-82
2021/05/02 03:18:06;;;;;;;31.48;11.73;;;;;;;11.86;100.00;100915.72;1580243;90;21230;-82
2021/05/02 03:20:35;;;;;;;31.45;12.03;;;;;;;12.01;100.00;100907.70;1580188;90;21222;-82
2021/05/02 03:23:18;;;;;;;41.10;13.00;;;;;;;12.04;100.00;100911.23;1580274;90;21224;-82
2021/05/02 03:25:46;;;;;;;33.02;13.30;;;;;;;12.14;100.00;100904.52;1557527;90;21230;-82
2021/05/02 03:28:21;;;;;;;36.30;12.53;;;;;;;12.33;100.00;100898.69;1580241;90;22098;-82
2021/05/02 03:30:48;;;;;;;43.25;13.10;;;;;;;12.76;100.00;100892.59;1582084;90;21761;-82
2021/05/02 03:33:16;;;;;;;44.13;14.45;;;;;;;14.01;100.00;100889.91;1566840;91;21564;-82
2021/05/02 03:35:48;;;;;;;44.00;13.22;;;;;;;14.01;100.00;100889.91;1568808;91;21190;-82
2021/05/02 03:38:32;;;;;;;40.45;13.65;;;;;;;14.94;100.00;100887.05;1566623;91;21136;-82
2021/05/02 03:40:59;;;;;;;48.00;14.85;;;;;;;15.76;100.00;100884.48;1564478;91;21945;-83
2021/05/02 03:43:25;;;;;;;51.53;14.33;;;;;;;16.06;100.00;100894.77;1568701;91;21649;-82
2021/05/02 03:45:51;;;;;;;52.15;14.83;;;;;;;17.01;100.00;100894.39;1568751;91;21039;-83
2021/05/02 03:48:17;;;;;;;38.10;14.25;;;;;;;18.07;100.00;100896.96;1568691;91;21249;-83
2021/05/02 03:50:43;;;;;;;44.73;14.43;;;;;;;18.99;100.00;100886.27;1568847;91;21126;-83
2021/05/02 03:53:09;;;;;;;36.15;13.45;;;;;;;19.22;100.00;100892.55;1563546;90;21207;-83
2021/05/02 03:55:46;;;;;;;40.25;13.62;;;;;;;19.35;100.00;100888.13;1616930;88;21655;-83
2021/05/02 03:58:17;;;;;;;41.85;13.62;;;;;;;19.61;100.00;100890.22;1624501;88;21699;-83
2021/05/02 04:00:44;;;;;;;36.60;13.35;;;;;;;20.87;100.00;100892.42;1624632;88;21263;-83
2021/05/02 04:03:14;;;;;;;37.15;13.75;;;;;;;21.33;94.59;100888.20;1624649;88;21234;-83
2021/05/02 04:05:41;;;;;;;42.73;14.75;;;;;;;20.94;90.60;100886.45;1624685;88;21262;-83
2021/05/02 04:08:09;;;;;;;37.98;14.00;;;;;;;20.16;96.97;100889.28;1624441;88;21226;-83
2021/05/02 04:10:35;;;;;;;38.20;14.38;;;;;;;19.61;100.00;100886.91;1624593;88;21102;-82
2021/05/02 04:13:01;;;;;;;35.10;13.95;;;;;;;19.98;100.00;100886.81;1624649;88;21623;-83
2021/05/02 04:15:26;;;;;;;41.90;14.30;;;;;;;20.27;100.00;100890.38;1624795;88;20999;-83
2021/05/02 04:17:52;;;;;;;34.33;15.10;;;;;;;20.61;100.00;100897.87;1624630;88;21170;-83
2021/05/02 04:20:19;;;;;;;35.05;14.58;;;;;;;19.99;100.00;100900.16;1624678;88;21119;-83
2021/05/02 04:22:46;;;;;;;38.33;14.73;;;;;;;21.13;100.00;100897.09;1624532;88;21225;-83
2021/05/02 04:25:12;;;;;;;46.18;14.53;;;;;;;20.84;95.55;100895.23;1624598;88;21167;-83
2021/05/02 04:27:38;;;;;;;34.08;14.45;;;;;;;20.32;99.67;100899.78;1660328;85;21516;-82
2021/05/02 04:30:07;;;;;;;42.80;15.83;;;;;;;19.69;100.00;100896.33;1677061;85;21320;-82
2021/05/02 04:32:33;;;;;;;39.55;15.72;;;;;;;19.57;100.00;100895.51;1698828;83;21179;-82
2021/05/02 04:34:58;;;;;;;38.98;14.55;;;;;;;19.20;100.00;100902.97;1677020;84;21194;-82
2021/05/02 04:37:24;;;;;;;38.70;15.55;;;;;;;19.46;100.00;100905.08;1698787;83;21041;-82
2021/05/02 04:39:50;;;;;;;33.23;15.20;;;;;;;19.39;100.00;100900.63;1676985;85;21152;-82
2021/05/02 04:42:16;;;;;;;39.13;14.53;;;;;;;19.69;100.00;100903.16;1698898;84;21246;-82
2021/05/02 04:44:42;;;;;;;43.52;15.45;;;;;;;19.72;100.00;100905.27;1677118;84;21200;-82
2021/05/02 04:47:08;;;;;;;47.53;15.88;;;;;;;19.99;100.00;100904.83;1698934;83;21611;-82
2021/05/02 04:49:34;;;;;;;38.88;16.35;;;;;;;20.31;100.00;100911.30;1677054;85;21036;-81
2021/05/02 04:52:00;;;;;;;39.33;16.42;;;;;;;20.62;100.00;100920.04;1698861;83;20992;-82
2021/05/02 04:54:26;;;;;;;47.15;17.15;;;;;;;20.70;100.00;100916.48;1677008;85;22026;-82
2021/05/02 04:56:51;;;;;;;41.15;16.40;;;;;;;20.77;100.00;100916.03;1694629;83;21029;-82
2021/05/02 04:59:17;;;;;;;49.75;16.55;;;;;;;20.78;100.00;100917.63;1677029;85;21052;-82
2021/05/02 05:01:44;;;;;;;48.45;17.37;;;;;;;20.86;100.00;100914.91;1698970;83;21032;-82
2021/05/02 05:04:11;;;;;;;50.17;19.07;;;;;;;20.98;100.00;100906.61;1676895;84;21198;-82
2021/05/02 05:06:37;;;;;;;41.70;16.67;;;;;;;21.07;100.00;100908.22;1698719;83;21887;-82
2021/05/02 05:09:06;;;;;;;51.88;19.20;;;;;;;21.07;100.00;100912.90;1694312;83;21143;-82
2021/05/02 05:11:32;;;;;;;53.50;20.25;;;;;;;21.06;100.00;100914.00;1677018;85;21179;-81
2021/05/02 05:13:58;;;;;;;56.85;20.82;;;;;;;21.21;100.00;100913.54;1698828;83;21143;-81
2021/05/02 05:16:23;;;;;;;58.98;20.80;;;;;;;21.40;100.00;100908.30;1677146;84;21615;-81
2021/05/02 05:18:51;;;;;;;69.75;24.60;;;;;;;21.65;100.00;100908.81;1698839;84;21272;-81
2021/05/02 05:21:17;;;;;;;83.55;26.25;;;;;;;21.72;100.00;100906.36;1676929;84;21242;-81
2021/05/02 05:23:42;;;;;;;73.30;26.10;;;;;;;21.68;100.00;100906.79;1698872;83;20981;-82
2021/05/02 05:26:08;;;;;;;83.82;26.60;;;;;;;21.93;100.00;100907.02;1672471;85;20952;-81
2021/05/02 05:28:34;;;;;;;74.65;24.45;;;;;;;22.17;100.00;100905.89;1698914;83;21046;-82
2021/05/02 05:31:00;;;;;;;62.50;22.87;;;;;;;22.28;100.00;100904.16;1677131;85;21674;-82
2021/05/02 05:33:30;;;;;;;64.92;21.37;;;;;;;22.87;100.00;100898.01;1698788;83;20933;-82
2021/05/02 05:35:57;;;;;;;61.75;21.97;;;;;;;23.42;100.00;100892.55;1669238;84;21551;-82
2021/05/02 05:38:23;;;;;;;57.17;21.00;;;;;;;23.74;94.34;100890.94;1668069;85;21131;-82
2021/05/02 05:40:49;;;;;;;58.55;19.73;;;;;;;23.99;92.21;100891.75;1641003;87;21142;-82
2021/05/02 05:43:15;;;;;;;58.65;19.75;;;;;;;24.21;89.55;100889.13;1668116;85;21368;-82
2021/05/02 05:45:41;;;;;;;53.58;20.00;;;;;;;24.57;91.34;100895.77;1691086;84;21179;-82
2021/05/02 05:48:07;;;;;;;59.50;20.75;;;;;;;25.51;85.36;100890.38;1667860;85;21584;-82
2021/05/02 05:50:33;;;;;;;56.70;20.50;;;;;;;27.07;71.32;100884.17;1668090;85;21140;-83
2021/05/02 05:52:59;;;;;;;52.13;19.57;;;;;;;28.08;68.06;100880.66;1668009;85;21196;-82
2021/05/02 05:55:25;;;;;;;41.68;17.75;;;;;;;28.41;58.29;100872.81;1668031;86;21380;-82
2021/05/02 05:57:52;;;;;;;37.28;14.35;;;;;;;28.97;57.88;100868.63;1667760;85;21163;-82
2021/05/02 06:00:21;;;;;;;24.82;10.90;;;;;;;29.77;49.39;100864.13;1667798;86;21136;-83
2021/05/02 06:02:48;;;;;;;21.27;10.65;;;;;;;30.72;50.81;100871.28;1667903;85;21231;-83
2021/05/02 06:05:15;;;;;;;24.77;10.55;;;;;;;31.49;45.56;100874.73;1668004;85;21131;-83
2021/05/02 06:07:43;;;;;;;18.32;9.85;;;;;;;31.72;44.17;100879.12;1668072;85;21280;-83
2021/05/02 06:10:12;;;;;;;19.87;9.25;;;;;;;32.07;45.96;100880.53;1667878;85;21460;-83
2021/05/02 06:12:38;;;;;;;15.30;7.83;;;;;;;32.79;41.67;100878.34;1639555;87;21191;-83
2021/05/02 06:15:05;;;;;;;16.80;7.30;;;;;;;33.82;42.91;100881.73;1668045;85;21151;-84
2021/05/02 06:17:31;;;;;;;12.10;7.28;;;;;;;35.30;38.86;100883.09;1668186;86;21172;-83
2021/05/02 06:19:57;;;;;;;16.30;7.92;;;;;;;35.92;37.83;100881.70;1639463;86;22039;-83
2021/05/02 06:22:23;;;;;;;16.65;7.37;;;;;;;36.52;35.97;100883.84;1668079;86;20993;-85
2021/05/02 06:24:49;;;;;;;10.48;7.35;;;;;;;36.53;32.48;100873.59;1663980;85;21190;-85
2021/05/02 06:27:16;;;;;;;11.40;6.45;;;;;;;35.53;34.55;100865.48;1661481;86;21252;-85
2021/05/02 06:29:42;;;;;;;9.88;6.03;;;;;;;35.92;35.02;100865.48;1663928;86;21124;-86
2021/05/02 06:32:08;;;;;;;12.90;6.17;;;;;;;37.17;32.48;100860.79;1661472;86;21217;-85
2021/05/02 06:34:38;;;;;;;12.25;5.08;;;;;;;36.55;32.96;100866.91;1636755;85;21058;-84
2021/05/02 06:37:04;;;;;;;7.78;4.42;;;;;;;36.48;30.64;100866.26;1636705;87;21097;-84
2021/05/02 06:39:30;;;;;;;9.18;4.08;;;;;;;35.31;32.58;100863.65;1663343;84;21243;-84
2021/05/02 06:41:56;;;;;;;6.00;3.62;;;;;;;35.62;31.58;100862.17;1697846;84;21537;-85
2021/05/02 06:44:23;;;;;;;6.97;3.35;;;;;;;36.35;30.35;100868.90;1663552;86;21210;-85
2021/05/02 06:46:49;;;;;;;6.08;3.47;;;;;;;35.26;31.21;100860.70;1697609;84;21223;-83
2021/05/02 06:49:15;;;;;;;8.85;3.47;;;;;;;35.03;31.69;100857.23;1669291;84;21194;-83
2021/05/02 06:51:41;;;;;;;5.78;3.17;;;;;;;34.64;32.42;100859.75;1677035;85;21147;-83
2021/05/02 06:54:08;;;;;;;5.97;3.08;;;;;;;33.90;33.84;100862.89;1676962;85;21304;-83
2021/05/02 06:56:34;;;;;;;6.30;3.67;;;;;;;33.81;33.64;100858.39;1676972;85;21252;-83
2021/05/02 06:59:01;;;;;;;5.35;2.83;;;;;;;34.67;31.46;100857.52;1676777;85;22438;-82
2021/05/02 07:01:27;;;;;;;5.20;2.80;;;;;;;33.33;33.68;100860.55;1676887;85;21154;-82
2021/05/02 07:03:54;;;;;;;3.77;2.87;;;;;;;32.51;35.13;100859.73;1677079;85;21159;-82
2021/05/02 07:06:20;;;;;;;5.78;2.90;;;;;;;32.85;34.31;100859.17;1677094;85;21179;-82
2021/05/02 07:08:47;;;;;;;6.55;2.85;;;;;;;32.33;35.52;100861.16;1676925;85;21929;-83
2021/05/02 07:11:13;;;;;;;7.33;2.95;;;;;;;32.34;36.61;100866.13;1676964;85;21580;-83
2021/05/02 07:13:39;;;;;;;6.37;2.92;;;;;;;33.00;34.47;100862.14;1649733;85;21274;-82
2021/05/02 07:16:05;;;;;;;10.63;3.20;;;;;;;34.10;33.07;100864.53;1676961;85;21028;-83
2021/05/02 07:18:34;;;;;;;6.55;3.40;;;;;;;34.52;32.06;100860.45;1677102;84;21230;-82
2021/05/02 07:20:59;;;;;;;5.12;3.10;;;;;;;33.37;34.27;100864.09;1676871;85;21630;-82
2021/05/02 07:23:25;;;;;;;9.18;3.35;;;;;;;32.58;35.06;100870.06;1649495;85;21234;-82
2021/05/02 07:25:51;;;;;;;7.80;3.42;;;;;;;33.35;33.77;100873.48;1698736;84;21156;-82
2021/05/02 07:28:17;;;;;;;6.33;2.90;;;;;;;33.08;35.81;100873.27;1677059;85;21781;-82
2021/05/02 07:30:43;;;;;;;8.03;3.33;;;;;;;34.71;32.61;100873.07;1676725;85;21110;-82
2021/05/02 07:33:09;;;;;;;6.67;3.72;;;;;;;34.64;32.92;100876.55;1676684;85;21654;-82
2021/05/02 07:35:35;;;;;;;7.03;3.52;;;;;;;34.48;33.37;100865.92;1678137;84;21015;-82
2021/05/02 07:38:03;;;;;;;5.70;4.08;;;;;;;34.61;33.83;100872.58;1680162;84;21175;-83
2021/05/02 07:40:30;;;;;;;6.87;3.12;;;;;;;34.16;32.20;100874.06;1680079;84;21162;-81
2021/05/02 07:42:56;;;;;;;7.78;3.70;;;;;;;34.67;31.78;100875.72;1680105;84;21178;-81
2021/05/02 07:45:22;;;;;;;7.78;4.00;;;;;;;33.75;33.21;100867.03;1656319;84;21172;-81
2021/05/02 07:47:48;;;;;;;6.00;3.95;;;;;;;33.89;33.26;100865.52;1680085;84;21249;-82
2021/05/02 07:50:14;;;;;;;7.55;4.55;;;;;;;33.91;32.73;100861.67;1680132;84;21163;-81
2021/05/02 07:55:11;;;;;;;10.85;4.03;;;;;;;33.30;33.79;100862.73;1620810;87;21263;-82
2021/05/02 07:57:37;;;;;;;7.10;4.05;;;;;;;33.40;34.51;100850.70;1620978;88;21277;-81
2021/05/02 08:00:06;;;;;;;10.65;3.80;;;;;;;33.54;33.83;100847.83;1621013;88;21299;-82
2021/05/02 08:02:32;;;;;;;6.10;3.85;;;;;;;34.28;33.68;100848.34;1620852;88;21191;-82
2021/05/02 08:04:58;;;;;;;6.22;3.50;;;;;;;35.40;31.50;100843.49;1620748;88;21220;-82
2021/05/02 08:07:24;;;;;;;6.00;3.70;;;;;;;35.84;32.23;100838.77;1621066;88;20985;-82
2021/05/02 08:09:49;;;;;;;7.35;3.90;;;;;;;36.83;30.02;100826.20;1620857;88;21152;-82
2021/05/02 08:12:17;;;;;;;7.25;3.62;;;;;;;36.58;29.88;100824.55;1620955;88;21050;-82
2021/05/02 08:14:43;;;;;;;5.80;3.40;;;;;;;38.17;27.92;100820.29;1621024;88;21219;-82
2021/05/02 08:17:09;;;;;;;8.28;3.65;;;;;;;38.11;28.12;100818.63;1621058;88;21264;-82
2021/05/02 08:19:35;;;;;;;6.45;3.80;;;;;;;37.22;28.83;100813.89;1620780;88;21098;-82
2021/05/02 08:22:03;;;;;;;8.85;4.20;;;;;;;38.39;27.79;100809.22;1620927;88;21196;-82
2021/05/02 08:24:30;;;;;;;12.45;4.17;;;;;;;38.33;26.99;100808.97;1620608;88;21281;-82
2021/05/02 08:26:58;;;;;;;5.42;3.35;;;;;;;37.50;28.26;100798.34;1599629;88;21266;-82
2021/05/02 08:29:24;;;;;;;8.18;3.12;;;;;;;37.98;26.95;100810.77;1621027;87;21235;-82
2021/05/02 08:31:51;;;;;;;7.60;3.58;;;;;;;37.34;27.24;100801.94;1620931;88;21171;-82
2021/05/02 08:34:17;;;;;;;8.33;3.80;;;;;;;37.50;27.08;100792.13;1617277;88;21922;-82
2021/05/02 08:36:43;;;;;;;6.80;3.58;;;;;;;37.23;27.74;100791.56;1602039;87;21217;-82
2021/05/02 08:39:08;;;;;;;6.37;3.30;;;;;;;37.31;28.32;100797.20;1597939;89;21058;-82
2021/05/02 08:41:34;;;;;;;8.15;3.45;;;;;;;37.46;27.48;100788.56;1597822;89;21085;-81
2021/05/02 08:44:02;;;;;;;8.38;3.70;;;;;;;37.77;27.33;100781.17;1597836;89;21183;-82
2021/05/02 08:46:29;;;;;;;5.17;3.50;;;;;;;37.89;27.37;100782.45;1597929;89;21309;-82
2021/05/02 08:48:56;;;;;;;6.97;3.65;;;;;;;37.20;28.91;100782.61;1597687;89;21209;-82
2021/05/02 08:51:23;;;;;;;5.37;3.60;;;;;;;37.28;27.84;100787.61;1614424;86;21113;-82
2021/05/02 08:53:48;;;;;;;6.72;3.37;;;;;;;36.69;28.28;100786.40;1681305;85;21175;-82
2021/05/02 08:56:15;;;;;;;8.88;3.35;;;;;;;35.20;31.67;100783.94;1681433;85;21067;-82
2021/05/02 08:58:41;;;;;;;10.95;3.95;;;;;;;36.32;29.44;100781.34;1681396;85;21216;-82
2021/05/02 09:01:07;;;;;;;9.38;3.67;;;;;;;35.81;30.92;100784.94;1681330;85;21164;-82
2021/05/02 09:03:47;;;;;;;4.58;3.05;;;;;;;35.87;31.01;100788.20;1681335;85;21045;-82
2021/05/02 09:06:27;;;;;;;8.15;3.50;;;;;;;36.98;28.56;100777.48;1681470;85;21649;-82
2021/05/02 09:09:00;;;;;;;7.25;3.22;;;;;;;38.03;26.82;100779.87;1681389;85;21077;-81
2021/05/02 09:11:47;;;;;;;5.90;3.20;;;;;;;38.13;26.09;100777.39;1626951;88;21105;-81
2021/05/02 09:14:24;;;;;;;6.40;3.33;;;;;;;37.84;26.89;100780.97;1626853;88;21216;-81
2021/05/02 09:16:56;;;;;;;9.80;3.20;;;;;;;37.24;27.77;100783.30;1613805;88;21703;-81
2021/05/02 09:19:32;;;;;;;;;;;;;;;38.43;25.40;100768.30;1629416;88;21205;-81
2021/05/02 09:22:13;;;;;;;5.67;3.12;;;;;;;37.38;27.14;100773.10;1626977;88;20329;-81
2021/05/02 09:24:39;;;;;;;6.87;3.40;;;;;;;37.26;28.01;100771.01;1586117;90;21721;-81
2021/05/02 09:27:12;;;;;;;7.40;3.60;;;;;;;37.23;28.15;100769.86;1613630;88;21528;-81
2021/05/02 09:29:42;;;;;;;7.28;3.55;;;;;;;38.00;27.51;100763.25;1613732;88;21167;-81
2021/05/02 09:32:11;;;;;;;6.40;3.37;;;;;;;38.20;26.29;100759.48;1613821;88;21225;-81
2021/05/02 09:34:39;;;;;;;6.47;2.98;;;;;;;37.70;26.54;100761.03;1613775;88;21162;-81
2021/05/02 09:37:07;;;;;;;7.12;3.00;;;;;;;37.78;26.11;100759.45;1633825;87;21946;-81
2021/05/02 09:40:00;;;;;;;7.28;3.20;;;;;;;35.92;29.40;100760.28;1638773;86;22304;-81
2021/05/02 09:42:34;;;;;;;;;;;;;;;36.22;29.08;100763.50;1589108;90;21226;-81
2021/05/02 09:45:02;;;;;;;10.40;3.30;;;;;;;35.80;28.02;100767.91;1599742;88;20342;-81
2021/05/02 09:47:41;;;;;;;5.28;2.62;;;;;;;35.44;29.04;100760.12;1560987;91;21119;-81
2021/05/02 09:50:23;;;;;;;8.68;3.25;;;;;;;34.98;28.58;100753.27;1599520;89;21529;-81
2021/05/02 09:53:04;;;;;;;7.53;2.37;;;;;;;34.67;29.59;100748.31;1490364;96;21314;-81
2021/05/02 09:55:39;;;;;;;3.98;2.60;;;;;;;34.51;29.13;100751.72;1525548;93;21569;-81
2021/05/02 09:58:14;;;;;;;5.42;2.77;;;;;;;34.20;29.76;100743.30;1505443;94;21259;-81
2021/05/02 10:00:53;;;;;;;7.58;2.90;;;;;;;33.39;31.02;100740.94;1525850;92;21217;-81
2021/05/02 10:03:23;;;;;;;6.22;2.60;;;;;;;33.10;31.58;100735.41;1525620;94;21464;-81
2021/05/02 10:05:58;;;;;;;5.25;2.80;;;;;;;32.62;32.19;100735.50;1505798;94;21101;-81
2021/05/02 10:08:31;;;;;;;7.42;2.65;;;;;;;32.97;31.22;100726.67;1538663;92;21206;-80
2021/05/02 10:11:01;;;;;;;5.05;2.65;;;;;;;32.20;31.87;100728.09;1484118;96;21200;-81
2021/05/02 10:13:27;;;;;;;5.37;3.40;;;;;;;32.07;31.52;100724.38;1484440;96;21305;-81
2021/05/02 10:15:53;;;;;;;9.00;2.72;;;;;;;32.07;31.78;100728.55;1484371;96;21286;-81
2021/05/02 10:18:22;;;;;;;6.45;2.60;;;;;;;31.56;32.35;100721.50;1524542;93;21308;-81
2021/05/02 10:20:50;;;;;;;5.37;2.42;;;;;;;31.26;33.29;100719.70;1530738;93;21431;-81
2021/05/02 10:23:17;;;;;;;5.33;2.33;;;;;;;30.98;34.51;100721.29;1530706;93;21688;-81
2021/05/02 10:25:46;;;;;;;6.75;2.60;;;;;;;31.80;32.55;100710.09;1514949;93;21645;-81
2021/05/02 10:28:23;;;;;;;9.50;3.20;;;;;;;31.74;31.59;100708.92;1514978;94;21191;-81
2021/05/02 10:30:59;;;;;;;6.58;2.85;;;;;;;30.94;34.08;100713.52;1514712;93;21353;-81
2021/05/02 10:33:39;;;;;;;7.05;2.42;;;;;;;31.25;32.81;100709.16;1514699;93;21134;-81
2021/05/02 10:36:09;;;;;;;6.35;2.70;;;;;;;30.84;34.22;100706.76;1491587;94;21267;-81
2021/05/02 10:38:59;;;;;;;6.28;2.85;;;;;;;30.99;34.24;100704.78;1490563;95;21317;-81
2021/05/02 10:41:39;;;;;;;6.12;3.10;;;;;;;30.78;34.18;100699.96;1507966;95;21301;-81
2021/05/02 10:44:16;;;;;;;8.90;3.20;;;;;;;30.70;34.95;100701.92;1456947;98;21298;-80
2021/05/02 10:46:46;;;;;;;6.72;2.95;;;;;;;30.14;36.64;100703.33;1442346;99;21246;-81
2021/05/02 10:49:24;;;;;;;6.10;2.83;;;;;;;30.05;36.67;100695.95;1442494;99;21233;-80
2021/05/02 10:51:55;;;;;;;7.70;3.62;;;;;;;30.80;35.58;100702.36;1458324;98;21600;-81
2021/05/02 10:54:23;;;;;;;6.10;2.95;;;;;;;30.57;36.30;100697.15;1443084;99;22050;-81
2021/05/02 10:56:58;;;;;;;8.38;2.90;;;;;;;30.56;36.26;100701.89;1458077;98;21223;-81
2021/05/02 10:59:29;;;;;;;7.33;2.67;;;;;;;30.87;36.17;100688.47;1443327;99;21305;-81
2021/05/02 11:01:55;;;;;;;3.90;2.62;;;;;;;31.07;35.12;100684.70;1431660;99;21203;-81
2021/05/02 11:04:23;;;;;;;5.90;2.92;;;;;;;31.07;34.93;100678.53;1431720;99;21009;-81
2021/05/02 11:06:52;;;;;;;6.62;2.92;;;;;;;30.95;35.49;100689.47;1434226;97;21751;-81
2021/05/02 11:09:21;;;;;;;6.97;2.70;;;;;;;30.32;36.83;100687.53;1477757;97;21307;-81
2021/05/02 11:11:50;;;;;;;14.58;3.62;;;;;;;30.14;36.93;100696.38;1477942;97;21295;-81
2021/05/02 11:14:24;;;;;;;8.08;2.87;;;;;;;30.00;37.12;100692.14;1477857;97;21291;-81
2021/05/02 11:16:58;;;;;;;4.25;2.60;;;;;;;29.59;37.77;100677.02;1477824;97;21304;-80
2021/05/02 11:19:35;;;;;;;13.65;3.20;;;;;;;29.26;37.90;100673.23;1477991;97;21239;-81
2021/05/02 11:25:38;;;;;;;;;;;;;;;;;;;;;
2021/05/02 11:31:21;;;;;;;;;;;;;;;;;;;;;
2021/05/02 11:34:41;;;;;;;;;;;;;;;;;;;;;